createdAt,value
2017-12-04T00:00:46.704Z,10.80
2017-12-04T00:03:16.406Z,9.95
2017-12-04T00:05:43.973Z,10.13
2017-12-04T00:08:11.588Z,9.20
2017-12-04T00:10:39.429Z,9.10
2017-12-04T00:13:07.013Z,9.65
2017-12-04T00:15:34.702Z,10.13
2017-12-04T00:18:02.321Z,9.35
2017-12-04T00:20:30.109Z,10.18
2017-12-04T00:22:57.723Z,9.13
2017-12-04T00:25:25.467Z,11.00
2017-12-04T00:27:53.253Z,11.43
2017-12-04T00:30:20.881Z,9.90
2017-12-04T00:32:48.822Z,9.85
2017-12-04T00:35:16.616Z,8.65
2017-12-04T00:37:44.498Z,8.65
2017-12-04T00:40:12.357Z,9.40
2017-12-04T00:42:39.931Z,9.30
2017-12-04T00:45:07.709Z,10.65
2017-12-04T00:47:35.463Z,9.45
2017-12-04T00:50:03.040Z,10.00
2017-12-04T00:52:30.642Z,11.05
2017-12-04T00:54:58.198Z,9.85
2017-12-04T00:57:26.021Z,11.25
2017-12-04T00:59:53.624Z,10.27
2017-12-04T01:02:21.454Z,10.55
2017-12-04T01:04:51.148Z,9.80
2017-12-04T01:07:24.263Z,11.00
2017-12-04T01:09:52.255Z,8.70
2017-12-04T01:12:19.839Z,10.25
2017-12-04T01:14:47.446Z,10.27
2017-12-04T01:17:15.276Z,12.57
2017-12-04T01:19:42.832Z,13.20
2017-12-04T01:22:10.694Z,12.13
2017-12-04T01:24:38.479Z,13.95
2017-12-04T01:27:06.252Z,12.37
2017-12-04T01:29:33.850Z,17.62
2017-12-04T01:32:01.454Z,22.60
2017-12-04T01:34:29.012Z,19.73
2017-12-04T01:36:56.585Z,17.75
2017-12-04T01:39:24.218Z,17.17
2017-12-04T01:41:51.770Z,18.37
2017-12-04T01:44:19.314Z,18.80
2017-12-04T01:46:46.901Z,17.10
2017-12-04T01:49:14.576Z,16.27
2017-12-04T01:51:42.197Z,17.80
2017-12-04T01:54:09.826Z,16.10
2017-12-04T01:56:37.461Z,17.33
2017-12-04T01:59:05.107Z,17.50
2017-12-04T02:01:32.701Z,17.02
2017-12-04T02:04:00.287Z,15.73
2017-12-04T02:06:27.875Z,14.95
2017-12-04T02:08:55.872Z,17.27
2017-12-04T02:11:23.474Z,16.58
2017-12-04T02:13:51.033Z,15.40
2017-12-04T02:16:18.634Z,14.45
2017-12-04T02:18:46.496Z,14.87
2017-12-04T02:21:14.280Z,19.55
2017-12-04T02:23:41.905Z,15.73
2017-12-04T02:26:09.505Z,14.18
2017-12-04T02:28:37.302Z,12.23
2017-12-04T02:31:05.436Z,12.18
2017-12-04T02:33:33.081Z,11.40
2017-12-04T02:36:01.409Z,11.50
2017-12-04T02:38:29.054Z,11.05
2017-12-04T02:40:57.104Z,11.60
2017-12-04T02:43:24.731Z,10.82
2017-12-04T02:45:53.176Z,11.05
2017-12-04T02:48:20.965Z,11.80
2017-12-04T02:50:48.805Z,11.77
2017-12-04T02:53:16.470Z,11.95
2017-12-04T02:55:44.060Z,11.55
2017-12-04T02:58:11.918Z,12.00
2017-12-04T03:00:39.525Z,12.15
2017-12-04T03:03:07.384Z,12.63
2017-12-04T03:05:35.839Z,13.13
2017-12-04T03:08:03.955Z,12.90
2017-12-04T03:10:32.154Z,10.88
2017-12-04T03:12:59.706Z,11.80
2017-12-04T03:15:27.321Z,13.00
2017-12-04T03:17:55.135Z,11.95
2017-12-04T03:20:22.755Z,14.07
2017-12-04T03:22:50.402Z,13.45
2017-12-04T03:25:18.218Z,15.07
2017-12-04T03:27:45.865Z,14.93
2017-12-04T03:30:13.463Z,15.55
2017-12-04T03:32:41.317Z,14.73
2017-12-04T03:35:08.930Z,14.50
2017-12-04T03:37:36.607Z,14.73
2017-12-04T03:40:04.227Z,14.40
2017-12-04T03:42:31.857Z,14.35
2017-12-04T03:44:59.463Z,14.82
2017-12-04T03:47:27.129Z,15.38
2017-12-04T03:49:54.747Z,13.50
2017-12-04T03:52:22.528Z,15.48
2017-12-04T03:54:50.293Z,14.70
2017-12-04T03:57:17.825Z,14.07
2017-12-04T03:59:45.413Z,15.05
2017-12-04T04:02:13.021Z,13.52
2017-12-04T04:04:40.779Z,14.23
2017-12-04T04:07:08.743Z,14.90
2017-12-04T04:09:36.328Z,15.23
2017-12-04T04:12:04.083Z,14.32
2017-12-04T04:14:31.881Z,12.93
2017-12-04T04:16:59.467Z,13.90
2017-12-04T04:19:27.086Z,14.20
2017-12-04T04:21:54.685Z,13.52
2017-12-04T04:24:22.289Z,13.10
2017-12-04T04:26:49.859Z,13.55
2017-12-04T04:29:18.229Z,13.93
2017-12-04T04:31:45.981Z,12.70
2017-12-04T04:34:13.800Z,12.75
2017-12-04T04:36:41.613Z,14.85
2017-12-04T04:39:09.423Z,13.50
2017-12-04T04:41:37.003Z,13.68
2017-12-04T04:44:04.569Z,14.52
2017-12-04T04:46:32.413Z,14.25
2017-12-04T04:49:00.199Z,13.68
2017-12-04T04:51:27.782Z,13.95
2017-12-04T04:53:55.616Z,15.07
2017-12-04T04:56:23.205Z,13.82
2017-12-04T04:58:50.999Z,13.07
2017-12-04T05:01:18.613Z,13.90
2017-12-04T05:03:46.160Z,13.05
2017-12-04T05:06:13.926Z,13.93
2017-12-04T05:08:41.551Z,14.02
2017-12-04T05:11:09.126Z,13.60
2017-12-04T05:13:36.947Z,16.30
2017-12-04T05:16:04.598Z,14.80
2017-12-04T05:18:32.431Z,14.50
2017-12-04T05:21:00.209Z,15.70
2017-12-04T05:23:27.813Z,13.62
2017-12-04T05:25:55.362Z,14.30
2017-12-04T05:28:23.238Z,13.23
2017-12-04T05:30:51.054Z,15.55
2017-12-04T05:33:18.605Z,15.45
2017-12-04T05:35:46.609Z,15.43
2017-12-04T05:38:14.214Z,13.95
2017-12-04T05:40:41.781Z,14.25
2017-12-04T05:43:10.290Z,15.43
2017-12-04T05:45:37.911Z,14.57
2017-12-04T05:48:05.507Z,15.85
2017-12-04T05:50:33.293Z,15.35
2017-12-04T05:53:00.885Z,14.98
2017-12-04T05:55:28.581Z,15.25
2017-12-04T05:57:56.369Z,16.95
2017-12-04T06:00:23.966Z,16.05
2017-12-04T06:02:51.470Z,15.55
2017-12-04T06:05:19.084Z,16.80
2017-12-04T06:07:46.651Z,14.40
2017-12-04T06:10:14.212Z,17.80
2017-12-04T06:12:42.106Z,16.75
2017-12-04T06:15:09.687Z,16.37
2017-12-04T06:17:37.432Z,17.08
2017-12-04T06:20:04.997Z,16.70
2017-12-04T06:22:32.562Z,15.52
2017-12-04T06:25:01.289Z,16.23
2017-12-04T06:27:29.138Z,13.93
2017-12-04T06:29:56.737Z,15.65
2017-12-04T06:32:24.305Z,15.77
2017-12-04T06:34:51.860Z,15.20
2017-12-04T06:37:19.425Z,15.60
2017-12-04T06:39:47.212Z,16.30
2017-12-04T06:42:15.642Z,16.27
2017-12-04T06:44:43.160Z,16.40
2017-12-04T06:47:10.710Z,16.83
2017-12-04T06:49:38.222Z,16.77
2017-12-04T06:52:05.787Z,15.98
2017-12-04T06:54:33.352Z,19.60
2017-12-04T06:57:00.918Z,17.52
2017-12-04T06:59:28.890Z,16.35
2017-12-04T07:01:56.573Z,18.98
2017-12-04T07:04:24.348Z,15.07
2017-12-04T07:06:51.963Z,17.50
2017-12-04T07:09:19.534Z,15.70
2017-12-04T07:11:47.113Z,15.77
2017-12-04T07:14:14.877Z,13.65
2017-12-04T07:16:42.653Z,16.10
2017-12-04T07:19:10.421Z,14.73
2017-12-04T07:21:37.961Z,15.18
2017-12-04T07:24:05.830Z,14.05
2017-12-04T07:26:33.413Z,16.33
2017-12-04T07:29:01.154Z,15.35
2017-12-04T07:31:28.769Z,16.87
2017-12-04T07:33:56.362Z,16.17
2017-12-04T07:36:23.993Z,15.70
2017-12-04T07:38:52.352Z,14.48
2017-12-04T07:41:21.025Z,14.98
2017-12-04T07:43:48.617Z,15.18
2017-12-04T07:46:16.619Z,12.80
2017-12-04T07:48:44.187Z,15.30
2017-12-04T07:51:12.685Z,14.30
2017-12-04T07:53:40.322Z,15.15
2017-12-04T07:56:08.091Z,13.62
2017-12-04T07:58:35.656Z,13.13
2017-12-04T08:01:03.244Z,13.98
2017-12-04T08:03:30.822Z,14.75
2017-12-04T08:05:58.632Z,13.55
2017-12-04T08:08:28.872Z,13.30
2017-12-04T08:10:56.623Z,13.23
2017-12-04T08:13:24.398Z,12.70
2017-12-04T08:15:51.971Z,12.77
2017-12-04T08:18:19.545Z,14.77
2017-12-04T08:20:47.214Z,18.00
2017-12-04T08:23:14.779Z,15.07
2017-12-04T08:25:43.373Z,14.43
2017-12-04T08:28:10.979Z,12.75
2017-12-04T08:30:38.572Z,14.73
2017-12-04T08:33:06.342Z,13.68
2017-12-04T08:35:33.870Z,14.05
2017-12-04T08:38:01.415Z,14.32
2017-12-04T08:40:29.202Z,12.45
2017-12-04T08:42:56.758Z,12.23
2017-12-04T08:45:24.425Z,12.73
2017-12-04T08:47:52.216Z,11.95
2017-12-04T08:50:19.968Z,12.90
2017-12-04T08:52:50.910Z,12.70
2017-12-04T08:55:18.561Z,11.77
2017-12-04T08:57:46.158Z,11.52
2017-12-04T09:00:14.529Z,12.90
2017-12-04T09:02:42.390Z,12.18
2017-12-04T09:05:10.166Z,13.35
2017-12-04T09:07:38.158Z,13.10
2017-12-04T09:10:05.754Z,12.27
2017-12-04T09:12:33.681Z,13.20
2017-12-04T09:15:02.229Z,14.40
2017-12-04T09:17:30.018Z,13.25
2017-12-04T09:19:58.678Z,12.45
2017-12-04T09:22:26.995Z,13.35
2017-12-04T09:24:54.872Z,12.30
2017-12-04T09:27:22.671Z,12.30
2017-12-04T09:29:50.243Z,13.70
2017-12-04T09:32:18.058Z,11.85
2017-12-04T09:34:46.551Z,11.70
2017-12-04T09:37:14.450Z,13.82
2017-12-04T09:39:42.271Z,12.05
2017-12-04T09:42:10.027Z,12.07
2017-12-04T09:44:37.817Z,13.10
2017-12-04T09:47:05.578Z,12.75
2017-12-04T09:49:33.412Z,11.57
2017-12-04T09:52:01.183Z,11.32
2017-12-04T09:54:29.002Z,12.32
2017-12-04T09:56:56.611Z,11.18
2017-12-04T09:59:24.152Z,12.18
2017-12-04T10:01:51.975Z,12.52
2017-12-04T10:04:19.781Z,12.60
2017-12-04T10:06:47.571Z,12.75
2017-12-04T10:09:15.459Z,12.32
2017-12-04T10:11:43.125Z,13.20
2017-12-04T10:14:10.713Z,12.55
2017-12-04T10:16:38.494Z,14.48
2017-12-04T10:19:06.251Z,12.20
2017-12-04T10:21:33.837Z,13.52
2017-12-04T10:24:01.386Z,13.25
2017-12-04T10:26:28.978Z,12.40
2017-12-04T10:28:57.943Z,12.30
2017-12-04T10:31:25.542Z,12.70
2017-12-04T10:33:53.104Z,11.63
2017-12-04T10:36:20.672Z,11.40
2017-12-04T10:38:48.297Z,12.07
2017-12-04T10:41:16.073Z,12.10
2017-12-04T10:43:43.878Z,9.88
2017-12-04T10:46:11.842Z,10.40
2017-12-04T10:48:41.314Z,12.60
2017-12-04T10:51:08.830Z,11.55
2017-12-04T10:53:36.866Z,11.57
2017-12-04T10:56:05.106Z,13.02
2017-12-04T10:58:32.890Z,11.25
2017-12-04T11:01:00.462Z,10.77
2017-12-04T11:03:28.043Z,12.70
2017-12-04T11:05:55.619Z,10.68
2017-12-04T11:08:23.327Z,10.68
2017-12-04T11:10:51.108Z,10.13
2017-12-04T11:13:18.693Z,11.27
2017-12-04T11:15:46.318Z,11.57
2017-12-04T11:18:14.080Z,10.75
2017-12-04T11:20:41.866Z,10.57
2017-12-04T11:23:09.454Z,11.18
2017-12-04T11:25:37.806Z,12.98
2017-12-04T11:28:05.581Z,12.15
2017-12-04T11:30:33.403Z,9.85
2017-12-04T11:33:00.942Z,12.20
2017-12-04T11:35:28.771Z,12.25
2017-12-04T11:37:56.366Z,12.45
2017-12-04T11:40:23.953Z,13.85
2017-12-04T11:42:51.752Z,13.43
2017-12-04T11:45:19.357Z,13.62
2017-12-04T11:47:47.191Z,11.85
2017-12-04T11:50:15.269Z,13.27
2017-12-04T11:52:42.929Z,12.98
2017-12-04T11:55:10.802Z,13.18
2017-12-04T11:57:38.375Z,18.65
2017-12-04T12:00:09.166Z,11.80
2017-12-04T12:02:37.286Z,12.65
2017-12-04T12:05:05.140Z,13.02
2017-12-04T12:07:32.925Z,11.18
2017-12-04T12:10:00.488Z,11.20
2017-12-04T12:12:28.089Z,11.60
2017-12-04T12:14:55.775Z,11.73
2017-12-04T12:17:23.542Z,12.73
2017-12-04T12:19:51.107Z,12.35
2017-12-04T12:22:18.698Z,12.02
2017-12-04T12:24:46.251Z,10.68
2017-12-04T12:27:14.024Z,11.57
2017-12-04T12:29:41.653Z,13.35
2017-12-04T12:32:09.237Z,11.00
2017-12-04T12:34:37.042Z,12.65
2017-12-04T12:37:04.612Z,12.60
2017-12-04T12:39:32.346Z,12.68
2017-12-04T12:42:00.097Z,11.18
2017-12-04T12:44:27.693Z,12.70
2017-12-04T12:46:55.272Z,12.80
2017-12-04T12:49:23.078Z,11.65
2017-12-04T12:51:50.861Z,10.80
2017-12-04T12:54:18.434Z,11.25
2017-12-04T12:56:46.402Z,12.43
2017-12-04T12:59:14.219Z,13.90
2017-12-04T13:01:41.885Z,13.60
2017-12-04T13:04:09.477Z,13.13
2017-12-04T13:06:36.994Z,13.38
2017-12-04T13:09:04.650Z,14.00
2017-12-04T13:11:32.376Z,15.45
2017-12-04T13:14:00.792Z,12.98
2017-12-04T13:16:28.411Z,13.48
2017-12-04T13:18:55.992Z,12.37
2017-12-04T13:21:24.581Z,12.50
2017-12-04T13:23:52.195Z,13.45
2017-12-04T13:26:19.980Z,12.40
2017-12-04T13:28:47.638Z,13.40
2017-12-04T13:31:15.622Z,12.85
2017-12-04T13:33:55.225Z,12.82
2017-12-04T13:36:34.870Z,14.43
2017-12-04T13:39:03.393Z,14.07
2017-12-04T13:41:30.960Z,16.12
2017-12-04T13:43:58.535Z,17.42
2017-12-04T13:46:26.181Z,13.48
2017-12-04T13:48:53.945Z,15.13
2017-12-04T13:51:21.507Z,14.20
2017-12-04T13:53:49.029Z,13.65
2017-12-04T13:56:17.479Z,14.07
2017-12-04T13:58:46.884Z,14.13
2017-12-04T14:01:14.606Z,16.50
2017-12-04T14:03:42.504Z,15.40
2017-12-04T14:06:10.083Z,15.57
2017-12-04T14:08:37.699Z,14.65
2017-12-04T14:11:05.454Z,11.43
2017-12-04T14:13:32.973Z,15.82
2017-12-04T14:16:00.971Z,15.48
2017-12-04T14:18:28.748Z,15.95
2017-12-04T14:20:56.562Z,14.60
2017-12-04T14:23:24.395Z,14.50
2017-12-04T14:25:51.962Z,14.23
2017-12-04T14:28:19.743Z,14.77
2017-12-04T14:30:47.388Z,12.37
2017-12-04T14:33:15.182Z,13.62
2017-12-04T14:35:42.790Z,13.20
2017-12-04T14:38:10.325Z,13.40
2017-12-04T14:40:38.332Z,14.50
2017-12-04T14:43:06.129Z,16.50
2017-12-04T14:45:33.732Z,13.77
2017-12-04T14:48:01.492Z,16.73
2017-12-04T14:50:29.279Z,15.32
2017-12-04T14:52:56.862Z,14.50
2017-12-04T14:55:25.193Z,15.80
2017-12-04T14:57:52.842Z,15.68
2017-12-04T15:00:20.401Z,15.38
2017-12-04T15:02:47.970Z,16.30
2017-12-04T15:05:15.554Z,14.35
2017-12-04T15:07:43.357Z,15.02
2017-12-04T15:10:11.161Z,14.87
2017-12-04T15:12:39.550Z,14.45
2017-12-04T15:15:07.351Z,14.87
2017-12-04T15:17:35.022Z,14.65
2017-12-04T15:20:02.641Z,15.65
2017-12-04T15:26:53.614Z,14.87
2017-12-04T15:29:21.359Z,14.40
2017-12-04T15:31:48.929Z,14.77
2017-12-04T15:34:17.303Z,13.75
2017-12-04T15:36:45.076Z,14.35
2017-12-04T15:39:13.219Z,13.70
2017-12-04T15:41:41.011Z,16.00
2017-12-04T15:44:08.569Z,15.38
2017-12-04T15:46:36.181Z,15.88
2017-12-04T15:49:03.750Z,16.25
2017-12-04T15:51:31.666Z,16.30
2017-12-04T15:53:59.885Z,16.05
2017-12-04T15:56:28.340Z,16.48
2017-12-04T15:58:55.907Z,15.80
2017-12-04T16:01:23.492Z,15.25
2017-12-04T16:03:51.105Z,13.23
2017-12-04T16:06:18.854Z,16.67
2017-12-04T16:08:46.624Z,13.20
2017-12-04T16:11:14.398Z,14.50
2017-12-04T16:13:42.046Z,14.00
2017-12-04T16:16:09.642Z,14.55
2017-12-04T16:18:37.174Z,14.95
2017-12-04T16:21:05.036Z,15.52
2017-12-04T16:23:32.667Z,16.05
2017-12-04T16:26:00.293Z,14.55
2017-12-04T16:28:28.159Z,14.73
2017-12-04T16:30:56.205Z,15.05
2017-12-04T16:33:23.858Z,14.30
2017-12-04T16:35:51.622Z,15.25
2017-12-04T16:38:19.741Z,15.48
2017-12-04T16:40:47.355Z,16.20
2017-12-04T16:43:14.957Z,16.85
2017-12-04T16:45:44.315Z,14.13
2017-12-04T16:48:15.262Z,15.52
2017-12-04T16:50:44.018Z,14.38
2017-12-04T16:53:11.666Z,14.40
2017-12-04T16:55:39.913Z,15.85
2017-12-04T16:58:07.459Z,14.68
2017-12-04T17:00:35.914Z,14.40
2017-12-04T17:03:03.902Z,13.10
2017-12-04T17:05:31.442Z,13.25
2017-12-04T17:07:59.030Z,14.35
2017-12-04T17:10:26.805Z,14.25
2017-12-04T17:12:54.426Z,12.90
2017-12-04T17:15:23.042Z,14.90
2017-12-04T17:17:50.854Z,14.40
2017-12-04T17:20:20.094Z,17.50
2017-12-04T17:22:47.799Z,13.55
2017-12-04T17:25:15.369Z,15.55
2017-12-04T17:27:43.150Z,14.30
2017-12-04T17:30:10.770Z,14.77
2017-12-04T17:32:38.329Z,16.40
2017-12-04T17:35:06.077Z,14.10
2017-12-04T17:37:33.765Z,12.32
2017-12-04T17:40:01.527Z,13.05
2017-12-04T17:42:29.325Z,13.07
2017-12-04T17:44:57.426Z,13.48
2017-12-04T17:47:25.047Z,14.57
2017-12-04T17:49:52.818Z,12.45
2017-12-04T17:52:20.448Z,10.57
2017-12-04T17:54:47.990Z,11.93
2017-12-04T17:57:15.714Z,12.90
2017-12-04T17:59:43.342Z,14.40
2017-12-04T18:02:11.202Z,13.35
2017-12-04T18:04:38.732Z,12.37
2017-12-04T18:07:07.190Z,14.25
2017-12-04T18:09:34.960Z,13.73
2017-12-04T18:12:02.782Z,13.62
2017-12-04T18:14:30.639Z,13.80
2017-12-04T18:16:59.476Z,12.68
2017-12-04T18:19:28.986Z,13.48
2017-12-04T18:21:58.532Z,12.57
2017-12-04T18:24:30.351Z,11.95
2017-12-04T18:27:00.871Z,14.75
2017-12-04T18:29:35.433Z,13.48
2017-12-04T18:32:03.414Z,14.80
2017-12-04T18:34:35.231Z,13.15
2017-12-04T18:37:02.838Z,11.10
2017-12-04T18:39:32.232Z,12.73
2017-12-04T18:41:59.883Z,11.43
2017-12-04T18:44:28.281Z,11.12
2017-12-04T18:46:56.021Z,11.65
2017-12-04T18:49:25.778Z,11.45
2017-12-04T18:51:53.505Z,12.68
2017-12-04T18:54:21.218Z,11.23
2017-12-04T18:56:48.867Z,11.23
2017-12-04T18:59:17.204Z,11.70
2017-12-04T19:01:46.686Z,11.38
2017-12-04T19:04:14.393Z,18.08
2017-12-04T19:06:42.430Z,11.98
2017-12-04T19:09:17.699Z,11.95
2017-12-04T19:11:45.874Z,15.27
2017-12-04T19:14:16.345Z,13.02
2017-12-04T19:17:01.469Z,10.50
2017-12-04T19:19:31.340Z,10.30
2017-12-04T19:21:59.815Z,10.48
2017-12-04T19:24:27.629Z,11.15
2017-12-04T19:27:00.711Z,9.43
2017-12-04T19:29:36.651Z,11.48
2017-12-04T19:35:21.881Z,8.23
2017-12-04T19:37:49.594Z,10.38
2017-12-04T19:40:17.323Z,11.43
2017-12-04T19:42:45.048Z,10.07
2017-12-04T19:45:12.807Z,10.40
2017-12-04T19:47:41.995Z,13.20
2017-12-04T19:50:09.620Z,11.05
2017-12-04T19:52:38.212Z,10.15
2017-12-04T19:55:06.034Z,9.75
2017-12-04T19:57:41.465Z,11.00
2017-12-04T20:00:09.974Z,10.23
2017-12-04T20:02:38.496Z,10.32
2017-12-04T20:05:10.484Z,10.00
2017-12-04T20:07:45.533Z,10.95
2017-12-04T20:27:33.557Z,11.25
2017-12-04T20:30:01.253Z,11.63
2017-12-04T20:32:29.178Z,11.32
2017-12-04T20:34:59.220Z,10.77
2017-12-04T20:37:27.562Z,11.02
2017-12-04T20:39:55.472Z,11.85
2017-12-04T20:42:24.206Z,12.70
2017-12-04T20:44:51.950Z,12.05
2017-12-04T20:47:28.019Z,11.38
2017-12-04T20:50:03.532Z,11.32
2017-12-04T20:52:31.424Z,14.02
2017-12-04T20:54:59.088Z,13.30
2017-12-04T20:57:27.969Z,12.45
2017-12-04T20:59:58.290Z,12.52
2017-12-04T21:02:34.469Z,12.52
2017-12-04T21:05:02.873Z,13.52
2017-12-04T21:07:31.335Z,11.85
2017-12-04T21:10:10.947Z,11.50
2017-12-04T21:12:38.616Z,12.23
2017-12-04T21:15:18.106Z,10.63
2017-12-04T21:17:45.949Z,12.90
2017-12-04T21:20:19.878Z,13.40
2017-12-04T21:22:49.138Z,12.40
2017-12-04T21:29:00.786Z,11.88
2017-12-04T21:38:30.798Z,11.88
2017-12-04T21:41:04.778Z,10.13
2017-12-04T21:43:52.234Z,11.20
2017-12-04T21:56:25.938Z,11.85
2017-12-04T21:58:55.196Z,12.95
2017-12-04T22:01:23.512Z,13.85
2017-12-04T22:06:24.042Z,15.68
2017-12-04T22:11:26.940Z,12.68
2017-12-04T22:13:54.692Z,12.80
2017-12-04T22:16:22.346Z,13.27
2017-12-04T22:18:49.973Z,12.37
2017-12-04T22:21:18.359Z,12.07
2017-12-04T22:23:45.942Z,13.98
2017-12-04T22:26:40.573Z,13.20
